Nearby METAR Reports

 

KPLU - Puyallup/Thun, Washington, USA
Distance from station: SSW 10mi, 16km
Updated: Fri, 21-Jan-2022 8:15am PST
Overcast
Overcast
 Wind from calm
Wind: Calm
Temperature: 37°F , 3°C
Dew Point: 37°F , 3°C
Humidity: 100%
Barometer: 30.61 inHg , 1036.6 hPa
Clouds: Overcast
Visibility: 9 miles , 14 km
Cloud details: Overcast 1200 ft
2022/01/21 16:15 KPLU 211615Z AUTO 00000KT 9SM OVC012 03/03 A3061 RMK AO2
KTCM - Tacoma/Mc Chord, Washington, USA
Distance from station: SW 15mi, 24km
Updated: Fri, 21-Jan-2022 7:58am PST
Overcast
Overcast
 Wind from calm
Wind: Calm
Temperature: 32°F , 0°C
Dew Point: 32°F , 0°C
Humidity: 100%
Barometer: 30.61 inHg , 1036.6 hPa
Clouds: Overcast
Visibility: 8 miles , 13 km
Cloud details: Overcast 1100 ft
2022/01/21 15:58 KTCM 211558Z AUTO 00000KT 8SM OVC011 00/00 A3061 RMK AO2 VIS 7/8 RWY16/34 VIS 1 RWY34 SLP372 T00040004 RVRNO $
 
KSEA - Seattle/Metro, Washington, USA
Distance from station: NNW 16mi, 25km
Updated: Fri, 21-Jan-2022 7:53am PST
Mostly cloudy
Mostly cloudy
 Wind from calm
Wind: Calm
Temperature: 41°F , 5°C
Dew Point: 39°F , 4°C
Humidity: 93%
Barometer: 30.60 inHg , 1036.2 hPa
Clouds: Mostly cloudy
Visibility: 9 miles , 14 km
Cloud details: Few Clouds 1000 ft
Partly cloudy 2200 ft
Mostly cloudy 14000 ft
Mostly cloudy 24000 ft
2022/01/21 15:53 KSEA 211553Z 00000KT 9SM FEW010 SCT022 BKN140 BKN240 05/04 A3060 RMK AO2 SLP370 ACSL SE T00500039
KRNT - Renton, Washington, USA
Distance from station: N 18mi, 29km
Updated: Fri, 21-Jan-2022 8:18am PST
Partly cloudy
Partly cloudy
 Wind from calm
Wind: Calm
Temperature: 41°F , 5°C
Dew Point: 39°F , 4°C
Humidity: 93%
Barometer: 30.63 inHg , 1037.3 hPa
Clouds: Partly cloudy
Visibility: 10 miles , 16 km
Cloud details: Partly cloudy 1300 ft
Partly cloudy 2700 ft
2022/01/21 16:18 KRNT 211618Z 00000KT 10SM SCT013 SCT027 05/04 A3063 RMK AO2 T00500039
 
KTIW - Tacoma, Washington, USA
Distance from station: W 18mi, 29km
Updated: Fri, 21-Jan-2022 7:56am PST
Mist, Mostly cloudy
Mist, Mostly cloudy
 Wind from calm
Wind: Calm
Temperature: 39°F , 4°C
Dew Point: 39°F , 4°C
Humidity: 100%
Barometer: 30.61 inHg , 1036.6 hPa
Summary: Mist
Clouds: Mostly cloudy
Visibility: 2 1/2 miles , 4 km
Cloud details: Mostly cloudy 1200 ft
2022/01/21 15:56 KTIW 211556Z 00000KT 2 1/2SM BR BKN012 04/04 A3061 RMK AO2 T00440044
KGRF - Fort Lewis/Gray, Washington, USA
Distance from station: SW 21mi, 33km
Updated: Fri, 21-Jan-2022 8:16am PST
Overcast
Overcast
 Wind from ESE
Wind: ESE 5 mph , 7 km/h
Temperature: 36°F , 2°C
Wind Chill: 32°F , 0°C
Dew Point: 34°F , 1°C
Humidity: 93%
Barometer: 30.60 inHg , 1036.2 hPa
Clouds: Overcast
Visibility: 10 miles , 16 km
Cloud details: Few Clouds 200 ft
Overcast 800 ft
2022/01/21 16:16 KGRF 211616Z 12004KT 10SM FEW002 OVC008 02/01 A3060 RMK AO2A SLP369 $
 
KBFI - Seattle/Boeing, Washington, USA
Distance from station: NNW 22mi, 36km
Updated: Fri, 21-Jan-2022 8:18am PST
Overcast
Overcast
 Wind from calm
Wind: Calm
Temperature: 45°F , 7°C
Dew Point: 43°F , 6°C
Humidity: 93%
Barometer: 30.63 inHg , 1037.3 hPa
Clouds: Overcast
Visibility: 10 miles , 16 km
Cloud details: Few Clouds 1200 ft
Overcast 3000 ft
2022/01/21 16:18 KBFI 211618Z 00000KT 10SM FEW012 OVC030 07/06 A3063 RMK AO2 T00670056
KPWT - Bremerton Ntnl, Washington, USA
Distance from station: NW 31mi, 50km
Updated: Fri, 21-Jan-2022 7:56am PST
Overcast
Overcast
 Wind from calm
Wind: Calm
Temperature: 37°F , 3°C
Dew Point: 37°F , 3°C
Humidity: 100%
Barometer: 30.61 inHg , 1036.6 hPa
Clouds: Overcast
Visibility: 10 miles , 16 km
Cloud details: Overcast 3700 ft
2022/01/21 15:56 KPWT 211556Z AUTO 00000KT 10SM OVC037 03/03 A3061 RMK AO2 SLP373 T00280028
 
KOLM - Olympia, Washington, USA
Distance from station: WSW 38mi, 60km
Updated: Fri, 21-Jan-2022 8:21am PST
Fog, Overcast
Fog, Overcast
 Wind from calm
Wind: Calm
Temperature: 39°F , 4°C
Dew Point: 39°F , 4°C
Humidity: 100%
Barometer: 30.62 inHg , 1036.9 hPa
Summary: Fog
Clouds: Overcast
Visibility: 1/4 mile , 0.4 km
Cloud details: Overcast 300 ft
2022/01/21 16:21 KOLM 211621Z 00000KT 1/4SM FG VV003 04/04 A3062 RMK AO2 T00440039
KSMP - Stampede Pass, Washington, USA
Distance from station: E 41mi, 66km
Updated: Fri, 21-Jan-2022 8:22am PST
Mist, Overcast
Mist, Overcast
 Wind from SW
Wind: SW 7 mph , 11 km/h
Temperature: 28°F , -2°C
Wind Chill: 21°F , -6°C
Dew Point: 28°F , -2°C
Humidity: 100%
Barometer: 30.47 inHg , 1031.8 hPa
Summary: Mist
Clouds: Overcast
Visibility: 1 mile , 2 km
Cloud details: Overcast 100 ft
2022/01/21 16:22 KSMP 211622Z AUTO 23006KT 1SM BR VV001 M02/M02 A3047 RMK AO2 I1000 T10171022
 
KSHN - Shelton, Washington, USA
Distance from station: W 43mi, 70km
Updated: Fri, 21-Jan-2022 8:08am PST
Mist, Overcast
Mist, Overcast
 Wind from calm
Wind: Calm
Temperature: 39°F , 4°C
Dew Point: 39°F , 4°C
Humidity: 100%
Barometer: 30.59 inHg , 1035.9 hPa
Summary: Mist
Clouds: Overcast
Visibility: 3 miles , 5 km
Cloud details: Overcast 1100 ft
2022/01/21 16:08 KSHN 211608Z AUTO 00000KT 3SM BR OVC011 04/04 A3059 RMK AO2 T00440044
KPAE - Everett, Washington, USA
Distance from station: N 47mi, 76km
Updated: Fri, 21-Jan-2022 7:53am PST
Clear
Clear
 Wind from calm
Wind: Calm
Temperature: 39°F , 4°C
Dew Point: 39°F , 4°C
Humidity: 100%
Barometer: 30.61 inHg , 1036.6 hPa
Clouds: Clear
Visibility: 10 miles , 16 km
2022/01/21 15:53 KPAE 211553Z 00000KT 10SM CLR 04/04 A3061 RMK AO2 SLP369 T00440039